createdAt,value
2023-03-13T00:01:48.950Z,98652.63
2023-03-13T00:04:22.432Z,98655.16
2023-03-13T00:07:00.158Z,98644.69
2023-03-13T00:09:31.531Z,98643.06
2023-03-13T00:12:09.198Z,98644.22
2023-03-13T00:14:53.228Z,98622.16
2023-03-13T00:17:23.435Z,98649.47
2023-03-13T00:19:59.506Z,98640.56
2023-03-13T00:22:31.554Z,98658.06
2023-03-13T00:25:05.321Z,98660.16
2023-03-13T00:27:40.693Z,98667.28
2023-03-13T00:30:11.838Z,98661.13
2023-03-13T00:32:49.624Z,98659.09
2023-03-13T00:35:25.574Z,98664.09
2023-03-13T00:38:04.166Z,98638.84
2023-03-13T00:40:48.374Z,98668.47
2023-03-13T00:43:24.231Z,98652.09
2023-03-13T00:45:55.457Z,98671.75
2023-03-13T00:48:26.440Z,98658.56
2023-03-13T00:51:01.534Z,98673.44
2023-03-13T00:53:36.820Z,98656.72
2023-03-13T00:56:13.292Z,98652.41
2023-03-13T00:58:46.989Z,98665.09
2023-03-13T01:01:30.302Z,98651.34
2023-03-13T01:04:07.525Z,98659.75
2023-03-13T01:06:38.679Z,98662.47
2023-03-13T01:09:13.733Z,98638.47
2023-03-13T01:11:51.516Z,98653.56
2023-03-13T01:14:25.524Z,98652.38
2023-03-13T01:17:04.478Z,98642.28
2023-03-13T01:19:40.550Z,98644.38
2023-03-13T01:22:12.923Z,98642.50
2023-03-13T01:24:40.660Z,98639.06
2023-03-13T01:27:11.809Z,98641.94
2023-03-13T01:29:42.349Z,98641.56
2023-03-13T01:32:15.963Z,98647.44
2023-03-13T01:34:46.096Z,98647.78
2023-03-13T01:37:15.955Z,98652.63
2023-03-13T01:39:53.523Z,98639.28
2023-03-13T01:42:24.615Z,98632.66
2023-03-13T01:45:03.609Z,98637.34
2023-03-13T01:50:25.828Z,98627.91
2023-03-13T01:53:05.592Z,98635.97
2023-03-13T01:55:40.444Z,98641.44
2023-03-13T01:58:35.477Z,98641.69
2023-03-13T02:01:17.052Z,98646.06
2023-03-13T02:03:54.965Z,98637.41
2023-03-13T02:06:25.558Z,98633.34
2023-03-13T02:09:14.816Z,98631.78
2023-03-13T02:12:23.791Z,98625.44
2023-03-13T02:15:03.909Z,98625.19
2023-03-13T02:17:38.565Z,98618.19
2023-03-13T02:20:19.437Z,98617.75
2023-03-13T02:23:08.563Z,98614.03
2023-03-13T02:25:54.287Z,98566.31
2023-03-13T02:28:47.860Z,98628.16
2023-03-13T02:31:24.838Z,98623.84
2023-03-13T02:33:55.487Z,98618.09
2023-03-13T02:36:29.722Z,98619.22
2023-03-13T02:39:07.600Z,98614.03
2023-03-13T02:41:38.231Z,98616.63
2023-03-13T02:44:13.682Z,98621.94
2023-03-13T02:47:07.429Z,98624.53
2023-03-13T02:49:38.586Z,98618.28
2023-03-13T02:52:51.844Z,98631.53
2023-03-13T02:55:30.574Z,98619.56
2023-03-13T02:58:02.201Z,98621.50
2023-03-13T03:00:39.334Z,98614.88
2023-03-13T03:03:15.025Z,98609.75
2023-03-13T03:05:58.813Z,98611.41
2023-03-13T03:08:36.419Z,98604.66
2023-03-13T03:11:09.058Z,98598.81
2023-03-13T03:13:45.632Z,98596.38
2023-03-13T03:16:18.750Z,98606.16
2023-03-13T03:18:52.603Z,98607.47
2023-03-13T03:21:30.061Z,98613.97
2023-03-13T03:24:04.643Z,98606.81
2023-03-13T03:26:32.687Z,98597.16
2023-03-13T03:29:03.344Z,98596.16
2023-03-13T03:31:39.137Z,98598.69
2023-03-13T03:34:08.729Z,98596.47
2023-03-13T03:36:40.218Z,98617.69
2023-03-13T03:39:11.361Z,98614.47
2023-03-13T03:41:46.459Z,98610.09
2023-03-13T03:44:30.505Z,98601.81
2023-03-13T03:47:05.521Z,98600.41
2023-03-13T03:49:40.468Z,98596.03
2023-03-13T03:52:14.925Z,98600.41
2023-03-13T03:54:50.038Z,98603.34
2023-03-13T03:57:28.157Z,98606.13
2023-03-13T04:00:02.646Z,98605.81
2023-03-13T04:02:44.057Z,98608.25
2023-03-13T04:05:14.761Z,98607.63
2023-03-13T04:07:47.586Z,98603.38
2023-03-13T04:10:25.103Z,98606.03
2023-03-13T04:12:56.551Z,98601.50
2023-03-13T04:15:32.944Z,98595.72
2023-03-13T04:18:06.114Z,98598.63
2023-03-13T04:20:53.291Z,98593.94
2023-03-13T04:23:29.600Z,98599.91
2023-03-13T04:25:58.732Z,98598.97
2023-03-13T04:28:30.240Z,98603.47
2023-03-13T04:31:08.045Z,98604.22
2023-03-13T04:34:21.734Z,98584.94
2023-03-13T04:37:16.727Z,98608.25
2023-03-13T04:40:19.898Z,98595.84
2023-03-13T04:43:15.381Z,98581.34
2023-03-13T04:46:17.043Z,98614.22
2023-03-13T04:49:15.351Z,98617.13
2023-03-13T04:52:18.621Z,98615.72
2023-03-13T04:55:34.723Z,98605.53
2023-03-13T04:58:33.167Z,98611.91
2023-03-13T05:01:27.489Z,98622.88
2023-03-13T05:04:29.076Z,98611.25
2023-03-13T05:07:26.528Z,98603.19
2023-03-13T05:10:24.588Z,98628.25
2023-03-13T05:13:15.673Z,98608.13
2023-03-13T05:16:26.179Z,98607.16
2023-03-13T05:19:36.444Z,98630.19
2023-03-13T05:22:35.623Z,98635.94
2023-03-13T05:25:42.642Z,98634.53
2023-03-13T05:28:37.575Z,98607.34
2023-03-13T05:31:34.393Z,98619.75
2023-03-13T05:34:33.045Z,98609.09
2023-03-13T05:37:23.868Z,98598.13
2023-03-13T05:40:21.288Z,98621.59
2023-03-13T05:43:15.680Z,98624.34
2023-03-13T05:46:03.896Z,98623.38
2023-03-13T05:48:52.226Z,98618.88
2023-03-13T05:51:39.155Z,98618.75
2023-03-13T05:57:43.208Z,98625.47
2023-03-13T06:00:44.251Z,98598.75
2023-03-13T06:03:33.205Z,98624.19
2023-03-13T06:06:05.622Z,98624.03
2023-03-13T06:08:47.076Z,98625.09
2023-03-13T06:11:18.687Z,98630.06
2023-03-13T06:13:50.633Z,98636.78
2023-03-13T06:16:43.781Z,98622.22
2023-03-13T06:19:26.184Z,98591.34
2023-03-13T06:21:57.832Z,98626.59
2023-03-13T06:24:39.304Z,98617.34
2023-03-13T06:27:09.003Z,98625.81
2023-03-13T06:29:42.766Z,98619.25
2023-03-13T06:32:13.403Z,98620.28
2023-03-13T06:35:01.472Z,98630.59
2023-03-13T06:37:36.213Z,98630.72
2023-03-13T06:40:13.709Z,98629.56
2023-03-13T06:42:56.983Z,98625.22
2023-03-13T06:45:32.238Z,98623.81
2023-03-13T06:48:05.865Z,98643.16
2023-03-13T06:50:44.018Z,98639.81
2023-03-13T06:53:23.226Z,98639.44
2023-03-13T06:55:53.499Z,98640.00
2023-03-13T06:58:32.074Z,98641.34
2023-03-13T07:01:06.976Z,98639.91
2023-03-13T07:03:44.039Z,98635.56
2023-03-13T07:06:16.211Z,98628.16
2023-03-13T07:11:40.150Z,98628.91
2023-03-13T07:14:17.121Z,98626.59
2023-03-13T07:16:54.851Z,98630.63
2023-03-13T07:19:28.066Z,98625.72
2023-03-13T07:21:59.642Z,98635.44
2023-03-13T07:24:32.255Z,98626.88
2023-03-13T07:27:07.573Z,98629.59
2023-03-13T07:29:38.654Z,98626.47
2023-03-13T07:32:24.930Z,98614.41
2023-03-13T07:34:59.548Z,98634.47
2023-03-13T07:37:28.321Z,98623.44
2023-03-13T07:39:59.657Z,98640.06
2023-03-13T07:42:30.856Z,98625.78
2023-03-13T07:45:10.903Z,98638.97
2023-03-13T07:47:43.050Z,98622.19
2023-03-13T07:50:15.147Z,98625.44
2023-03-13T07:52:52.775Z,98626.75
2023-03-13T07:55:30.716Z,98602.34
2023-03-13T07:58:03.103Z,98611.97
2023-03-13T08:03:26.601Z,98560.88
2023-03-13T08:06:14.215Z,98617.53
2023-03-13T08:08:44.803Z,98620.50
2023-03-13T08:11:19.223Z,98616.75
2023-03-13T08:14:00.945Z,98614.69
2023-03-13T08:16:37.653Z,98604.56
2023-03-13T08:19:09.052Z,98597.13
2023-03-13T08:21:46.081Z,98584.03
2023-03-13T08:24:16.899Z,98600.03
2023-03-13T08:26:54.094Z,98591.03
2023-03-13T08:29:26.792Z,98589.91
2023-03-13T08:31:59.757Z,98587.47
2023-03-13T08:34:36.491Z,98591.59
2023-03-13T08:37:06.236Z,98581.44
2023-03-13T08:39:38.394Z,98583.63
2023-03-13T08:42:17.828Z,98579.25
2023-03-13T08:44:56.218Z,98567.19
2023-03-13T08:47:26.211Z,98577.31
2023-03-13T08:50:01.500Z,98574.84
2023-03-13T08:52:33.343Z,98570.47
2023-03-13T08:55:04.868Z,98572.09
2023-03-13T08:57:33.030Z,98576.16
2023-03-13T09:02:53.056Z,98573.19
2023-03-13T09:05:54.645Z,98539.25
2023-03-13T09:08:27.411Z,98555.81
2023-03-13T09:11:04.982Z,98547.09
2023-03-13T09:13:36.017Z,98534.09
2023-03-13T09:19:18.057Z,98531.69
2023-03-13T09:21:59.057Z,98521.44
2023-03-13T09:24:30.261Z,98520.53
2023-03-13T09:27:03.889Z,98512.66
2023-03-13T09:29:40.364Z,98511.78
2023-03-13T09:32:23.128Z,98513.69
2023-03-13T09:34:59.473Z,98503.13
2023-03-13T09:37:33.405Z,98485.06
2023-03-13T09:40:10.692Z,98501.78
2023-03-13T09:42:52.590Z,98502.91
2023-03-13T09:45:48.721Z,98503.72
2023-03-13T09:48:45.531Z,98486.34
2023-03-13T09:51:45.586Z,98481.25
2023-03-13T09:54:41.206Z,98487.31
2023-03-13T09:57:23.106Z,98477.88
2023-03-13T10:00:14.483Z,98483.69
2023-03-13T10:02:52.258Z,98477.56
2023-03-13T10:05:32.646Z,98488.78
2023-03-13T10:08:19.193Z,98460.88
2023-03-13T10:11:32.819Z,98470.47
2023-03-13T10:14:35.364Z,98474.06
2023-03-13T10:17:18.529Z,98471.06
2023-03-13T10:20:01.337Z,98462.63
2023-03-13T10:22:40.932Z,98463.16
2023-03-13T10:25:41.931Z,98457.03
2023-03-13T10:28:22.568Z,98453.66
2023-03-13T10:30:58.032Z,98448.47
2023-03-13T10:33:49.697Z,98441.59
2023-03-13T10:36:20.817Z,98434.66
2023-03-13T10:38:58.070Z,98433.03
2023-03-13T10:41:43.173Z,98412.25
2023-03-13T10:44:27.634Z,98431.09
2023-03-13T10:47:15.976Z,98415.81
2023-03-13T10:49:52.438Z,98428.41
2023-03-13T10:52:53.310Z,98420.28
2023-03-13T10:55:29.535Z,98416.03
2023-03-13T10:58:08.195Z,98406.69
2023-03-13T11:00:44.108Z,98391.75
2023-03-13T11:03:24.435Z,98392.63
2023-03-13T11:06:18.646Z,98383.50
2023-03-13T11:08:47.794Z,98386.06
2023-03-13T11:14:27.735Z,98371.44
2023-03-13T11:20:37.825Z,98374.34
2023-03-13T11:23:32.742Z,98373.41
2023-03-13T11:26:55.121Z,98360.00
2023-03-13T11:30:06.185Z,98357.81
2023-03-13T11:33:15.649Z,98348.53
2023-03-13T11:35:51.929Z,98346.53
2023-03-13T11:38:39.920Z,98327.25
2023-03-13T11:41:35.454Z,98338.00
2023-03-13T11:44:19.252Z,98323.00
2023-03-13T11:47:36.472Z,98316.63
2023-03-13T11:50:46.902Z,98316.69
2023-03-13T11:53:47.171Z,98312.75
2023-03-13T11:56:50.361Z,98298.75
2023-03-13T11:59:36.321Z,98301.16
2023-03-13T12:02:25.528Z,98285.56
2023-03-13T12:05:03.319Z,98261.56
2023-03-13T12:08:07.023Z,98290.84
2023-03-13T12:10:49.708Z,98276.69
2023-03-13T12:13:41.532Z,98278.72
2023-03-13T12:16:25.342Z,98269.16
2023-03-13T12:19:00.313Z,98274.25
2023-03-13T12:21:51.877Z,98260.31
2023-03-13T12:24:42.047Z,98261.44
2023-03-13T12:27:29.918Z,98241.38
2023-03-13T12:30:24.116Z,98248.88
2023-03-13T12:33:17.797Z,98245.31
2023-03-13T12:35:53.172Z,98244.09
2023-03-13T12:38:29.934Z,98232.25
2023-03-13T12:41:34.490Z,98229.78
2023-03-13T12:44:09.287Z,98216.75
2023-03-13T12:46:53.787Z,98218.97
2023-03-13T12:53:08.224Z,98209.63
2023-03-13T12:55:59.948Z,98206.56
2023-03-13T12:58:58.492Z,98206.53
2023-03-13T13:01:37.214Z,98196.78
2023-03-13T13:04:36.493Z,98207.69
2023-03-13T13:07:28.059Z,98160.59
2023-03-13T13:10:23.680Z,98212.19
2023-03-13T13:13:28.843Z,98204.84
2023-03-13T13:16:21.215Z,98208.22
2023-03-13T13:19:13.821Z,98200.47
2023-03-13T13:21:45.197Z,98141.22
2023-03-13T13:25:08.858Z,98192.25
2023-03-13T13:27:40.592Z,98187.25
2023-03-13T13:30:26.827Z,98178.97
2023-03-13T13:33:20.519Z,98177.72
2023-03-13T13:35:51.848Z,98179.88
2023-03-13T13:38:37.182Z,98150.88
2023-03-13T13:41:12.879Z,98166.03
2023-03-13T13:43:52.136Z,98165.22
2023-03-13T13:46:43.527Z,98160.72
2023-03-13T13:49:30.351Z,98111.16
2023-03-13T13:52:12.810Z,98154.09
2023-03-13T13:55:00.576Z,98149.13
2023-03-13T13:57:33.480Z,98141.22
2023-03-13T14:00:24.787Z,98145.09
2023-03-13T14:02:58.513Z,98138.72
2023-03-13T14:05:34.105Z,98143.84
2023-03-13T14:08:16.737Z,98148.06
2023-03-13T14:10:58.196Z,98143.81
2023-03-13T14:13:31.640Z,98143.09
2023-03-13T14:16:32.576Z,98135.69
2023-03-13T14:19:00.648Z,98131.47
2023-03-13T14:21:33.143Z,98123.97
2023-03-13T14:24:06.346Z,98131.47
2023-03-13T14:26:46.120Z,98139.16
2023-03-13T14:29:21.125Z,98139.97
2023-03-13T14:31:55.532Z,98135.06
2023-03-13T14:34:24.288Z,98136.06
2023-03-13T14:37:10.972Z,98137.56
2023-03-13T14:39:50.222Z,98140.63
2023-03-13T14:45:31.281Z,98140.06
2023-03-13T14:48:24.851Z,98138.47
2023-03-13T14:51:14.253Z,98134.03
2023-03-13T14:54:09.587Z,98130.16
2023-03-13T14:56:48.329Z,98107.16
2023-03-13T14:59:34.558Z,98120.16
2023-03-13T15:02:24.367Z,98109.22
2023-03-13T15:05:14.075Z,98113.91
2023-03-13T15:07:54.108Z,98118.25
2023-03-13T15:10:38.975Z,98114.28
2023-03-13T15:13:35.589Z,98117.56
2023-03-13T15:16:20.185Z,98108.91
2023-03-13T15:19:06.572Z,98111.59
2023-03-13T15:24:25.381Z,98103.44
2023-03-13T15:29:39.143Z,98098.06
2023-03-13T15:32:25.257Z,98109.28
2023-03-13T15:35:11.557Z,98096.28
2023-03-13T15:37:52.114Z,98101.06
2023-03-13T15:40:26.679Z,98096.38
2023-03-13T15:43:03.026Z,98098.50
2023-03-13T15:45:35.354Z,98094.69
2023-03-13T15:48:06.985Z,98083.25
2023-03-13T15:50:36.618Z,98093.25
2023-03-13T15:53:13.130Z,98086.88
2023-03-13T15:56:00.317Z,98040.81
2023-03-13T15:58:31.984Z,98081.00
2023-03-13T16:01:04.007Z,98099.25
2023-03-13T16:03:43.501Z,98087.38
2023-03-13T16:06:30.988Z,98093.22
2023-03-13T16:09:02.072Z,98087.44
2023-03-13T16:11:31.307Z,98088.25
2023-03-13T16:16:48.556Z,98059.59
2023-03-13T16:19:20.056Z,98084.91
2023-03-13T16:21:57.692Z,98080.97
2023-03-13T16:24:25.665Z,98069.78
2023-03-13T16:27:01.961Z,98075.03
2023-03-13T16:29:33.194Z,98084.06
2023-03-13T16:32:10.840Z,98078.84
2023-03-13T16:34:42.037Z,98085.53
2023-03-13T16:37:21.047Z,98081.91
2023-03-13T16:39:53.243Z,98069.72
2023-03-13T16:42:20.975Z,98079.97
2023-03-13T16:44:49.885Z,98086.41
2023-03-13T16:47:43.308Z,98080.63
2023-03-13T16:50:38.685Z,98070.66
2023-03-13T16:53:16.146Z,98075.97
2023-03-13T16:56:04.485Z,98065.44
2023-03-13T16:58:35.330Z,98065.22
2023-03-13T17:03:51.550Z,98065.22
2023-03-13T17:06:30.350Z,98071.09
2023-03-13T17:09:03.682Z,98088.38
2023-03-13T17:11:34.860Z,98085.69
2023-03-13T17:14:11.920Z,98083.03
2023-03-13T17:16:45.880Z,98079.47
2023-03-13T17:19:21.475Z,98087.38
2023-03-13T17:21:49.255Z,98074.78
2023-03-13T17:24:20.369Z,98083.13
2023-03-13T17:26:51.910Z,98088.66
2023-03-13T17:29:31.128Z,98061.31
2023-03-13T17:32:04.223Z,98075.69
2023-03-13T17:34:36.708Z,98056.66
2023-03-13T17:37:23.001Z,98074.22
2023-03-13T17:39:58.159Z,98011.56
2023-03-13T17:42:28.171Z,98076.09
2023-03-13T17:44:58.706Z,98072.66
2023-03-13T17:47:33.013Z,98086.84
2023-03-13T17:50:06.732Z,98080.66
2023-03-13T17:52:48.193Z,98086.72
2023-03-13T17:55:18.523Z,98089.16
2023-03-13T17:57:53.931Z,98090.66
2023-03-13T18:00:30.331Z,98096.03
2023-03-13T18:03:06.917Z,98087.41
2023-03-13T18:05:40.446Z,98079.09
2023-03-13T18:08:15.363Z,98084.31
2023-03-13T18:10:51.609Z,98092.78
2023-03-13T18:13:21.529Z,98079.69
2023-03-13T18:15:54.385Z,98081.50
2023-03-13T18:18:27.685Z,98078.59
2023-03-13T18:21:02.130Z,98079.69
2023-03-13T18:23:35.930Z,98071.38
2023-03-13T18:26:28.182Z,98070.09
2023-03-13T18:29:07.130Z,98070.09
2023-03-13T18:31:37.908Z,98060.66
2023-03-13T18:34:16.641Z,98058.53
2023-03-13T18:36:46.857Z,98053.47
2023-03-13T18:39:25.426Z,98065.38
2023-03-13T18:41:54.008Z,98042.09
2023-03-13T18:44:25.647Z,98063.09
2023-03-13T18:46:56.696Z,98062.09
2023-03-13T18:49:27.676Z,98052.94
2023-03-13T18:52:00.785Z,98048.53
2023-03-13T18:54:30.533Z,98041.53
2023-03-13T18:57:06.543Z,98030.03
2023-03-13T18:59:36.317Z,98040.31
2023-03-13T19:02:08.214Z,98036.06
2023-03-13T19:04:38.166Z,98030.31
2023-03-13T19:07:15.931Z,98017.13
2023-03-13T19:09:47.250Z,98020.28
2023-03-13T19:15:06.542Z,98021.97
2023-03-13T19:17:38.727Z,98010.19
2023-03-13T19:20:09.431Z,97956.22
2023-03-13T19:22:37.322Z,98009.53
2023-03-13T19:25:08.473Z,97999.94
2023-03-13T19:27:46.460Z,98004.25
2023-03-13T19:30:34.111Z,98001.41
2023-03-13T19:33:09.132Z,98006.78
2023-03-13T19:35:48.282Z,97999.66
2023-03-13T19:38:19.820Z,97998.41
2023-03-13T19:40:53.200Z,97994.59
2023-03-13T19:43:25.209Z,98005.50
2023-03-13T19:48:40.994Z,97989.78
2023-03-13T19:51:11.576Z,98005.50
2023-03-13T19:53:45.500Z,97990.88
2023-03-13T19:56:30.507Z,97988.03
2023-03-13T19:59:10.618Z,97972.06
2023-03-13T20:01:59.607Z,97974.66
2023-03-13T20:04:28.319Z,97976.13
2023-03-13T20:06:56.222Z,97967.94
2023-03-13T20:09:31.351Z,97963.53
2023-03-13T20:14:53.973Z,97968.13
2023-03-13T20:17:25.563Z,97955.88
2023-03-13T20:19:56.354Z,97962.56
2023-03-13T20:22:32.214Z,97961.09
2023-03-13T20:25:07.075Z,97961.06
2023-03-13T20:27:47.326Z,97949.25
2023-03-13T20:30:25.090Z,97960.88
2023-03-13T20:32:59.742Z,97949.09
2023-03-13T20:35:32.419Z,97953.59
2023-03-13T20:38:04.460Z,97944.38
2023-03-13T20:40:40.527Z,97945.22
2023-03-13T20:43:20.889Z,97945.50
2023-03-13T20:45:58.286Z,97948.59
2023-03-13T20:48:33.862Z,97923.69
2023-03-13T20:51:03.497Z,97932.97
2023-03-13T20:53:34.058Z,97939.19
2023-03-13T20:56:06.388Z,97923.81
2023-03-13T21:01:27.608Z,97932.84
2023-03-13T21:04:07.196Z,97932.91
2023-03-13T21:06:44.423Z,97927.41
2023-03-13T21:09:22.586Z,97903.94
2023-03-13T21:11:54.944Z,97917.25
2023-03-13T21:14:26.188Z,97887.78
2023-03-13T21:16:56.366Z,97909.38
2023-03-13T21:19:24.260Z,97894.28
2023-03-13T21:22:08.280Z,97888.03
2023-03-13T21:24:39.581Z,97884.88
2023-03-13T21:27:22.627Z,97885.34
2023-03-13T21:29:52.956Z,97877.22
2023-03-13T21:32:34.405Z,97864.28
2023-03-13T21:35:11.798Z,97848.97
2023-03-13T21:37:47.471Z,97850.50
2023-03-13T21:43:16.285Z,97840.72
2023-03-13T21:45:47.657Z,97828.94
2023-03-13T21:48:22.441Z,97833.69
2023-03-13T21:51:05.150Z,97815.34
2023-03-13T21:53:35.719Z,97826.47
2023-03-13T21:59:09.347Z,97806.81
2023-03-13T22:01:41.015Z,97803.38
2023-03-13T22:04:23.514Z,97813.75
2023-03-13T22:06:51.638Z,97813.59
2023-03-13T22:09:23.449Z,97792.63
2023-03-13T22:11:55.748Z,97807.91
2023-03-13T22:14:25.434Z,97811.31
2023-03-13T22:16:59.493Z,97808.84
2023-03-13T22:19:48.737Z,97802.69
2023-03-13T22:22:20.847Z,97812.44
2023-03-13T22:24:51.163Z,97811.31
2023-03-13T22:27:20.526Z,97802.00
2023-03-13T22:29:52.042Z,97806.06
2023-03-13T22:32:21.259Z,97801.34
2023-03-13T22:34:55.297Z,97785.88
2023-03-13T22:37:44.232Z,97802.63
2023-03-13T22:40:16.287Z,97796.91
2023-03-13T22:42:47.695Z,97789.25
2023-03-13T22:45:24.715Z,97795.94
2023-03-13T22:48:08.948Z,97806.88
2023-03-13T22:50:46.387Z,97783.25
2023-03-13T22:53:19.403Z,97765.81
2023-03-13T22:55:54.368Z,97785.38
2023-03-13T23:01:19.415Z,97787.44
2023-03-13T23:03:49.463Z,97785.16
2023-03-13T23:06:23.251Z,97765.00
2023-03-13T23:08:51.823Z,97764.88
2023-03-13T23:11:26.404Z,97713.00
2023-03-13T23:13:59.662Z,97725.75
2023-03-13T23:16:30.943Z,97765.81
2023-03-13T23:19:01.050Z,97758.63
2023-03-13T23:21:30.099Z,97761.56
2023-03-13T23:24:02.672Z,97757.19
2023-03-13T23:26:43.009Z,97750.16
2023-03-13T23:29:14.113Z,97748.06
2023-03-13T23:31:43.572Z,97752.44
2023-03-13T23:34:13.947Z,97696.72
2023-03-13T23:36:47.383Z,97751.78
2023-03-13T23:42:15.437Z,97749.34
2023-03-13T23:44:43.865Z,97748.06
2023-03-13T23:47:21.914Z,97751.63
2023-03-13T23:50:03.731Z,97730.31
2023-03-13T23:53:01.170Z,97748.06
2023-03-13T23:55:32.379Z,97747.25
2023-03-13T23:58:02.935Z,97742.38
